Weather at Brownsville South Padre Island International Airport

Public forecast

Using degrees Fahrenheit for public forecast. Weather courtesy of forecast.io.

Current aviation weather report (METAR) for Brownsville South Padre Island International Airport

Retrieved 2020/11/25 03:53 UTC (26 minutes ago):

KBRO 250353Z 17015KT 10SM CLR 24/21 A2989 RMK AO2 SLP119 T02390206

Aviation forecast (TAF) for Brownsville South Padre Island International Airport

Retrieved 2020-11-25 00:22 UTC (4 hours ago):

TAF KBRO 242320Z 2500/2524 17018G25KT P6SM FEW030 FM250100 17012KT P6SM FEW020 FM251500 21010KT P6SM BKN030 FM252100 16010KT P6SM BKN050